First Ferry Viii — VRS4306 — position and weather

sailwx.info

Track history (hours):
 
Tides and Currents Weather Stations Pressure Air Temp Water Temp Dewpoint Dewpoint Depression Visibility Wind Speed Wind Dir Waves Ship Positions

First Ferry Viii

Last reported at 2016-Dec-09 01:12 UTC. Time now 2016-Dec-09 02:03 UTC.
Position N 22°19' E 114°09'.

Length 36 m; draft 1.8 m.

Type: High speed craft. MMSI: 477995030.

Date/timePositionNaut miles runAvg speedWind from/ knotsBaromVisibWave heightAir tempDewpointWater temp
2016-Dec-09 01:12N 22°19' E 114°09'2 0.2
2016-Dec-08 12:14N 22°17' E 114°10'2 1.8
2016-Dec-08 11:08N 22°18' E 114°08'1 1.3
2016-Dec-08 10:33N 22°18' E 114°09'1 0.4
2016-Dec-08 08:34N 22°18' E 114°09'1 0.4
2016-Dec-08 06:18N 22°17' E 114°09'0 0.1
2016-Dec-08 04:24N 22°17' E 114°10'2 0.5
2016-Dec-08 01:11N 22°19' E 114°09'1 0.1
2016-Dec-07 11:08N 22°18' E 114°09'1 1.8
2016-Dec-07 10:30N 22°17' E 114°10'1 0.4
2016-Dec-07 07:18N 22°18' E 114°08'2 2.1
2016-Dec-07 06:33N 22°17' E 114°10'0 0.2
2016-Dec-07 04:20N 22°17' E 114°10'0 0.1
2016-Dec-07 02:29N 22°17' E 114°10'1 1.0
2016-Dec-07 01:19N 22°18' E 114°08'0 0.0
2016-Dec-06 06:15N 22°18' E 114°08'1 0.2
2016-Dec-06 00:33N 22°18' E 114°09'1 0.1
2016-Dec-05 12:16N 22°17' E 114°11'2 2.0
2016-Dec-05 11:08N 22°18' E 114°08'0 0.2
2016-Dec-05 10:33N 22°18' E 114°08'0 0.2
2016-Dec-05 09:20N 22°18' E 114°08'2 0.2
2016-Dec-05 01:14N 22°19' E 114°09'3 1.2
2016-Dec-04 23:03N 22°17' E 114°07'1 0.1
2016-Dec-04 11:33N 22°18' E 114°09'1 0.1
2016-Dec-04 07:09N 22°18' E 114°08'2 2.5
2016-Dec-04 06:33N 22°17' E 114°10'0 0.1
2016-Dec-04 03:33N 22°17' E 114°09'1 1.0
2016-Dec-04 02:10N 22°18' E 114°08'1 2.1
2016-Dec-04 01:33N 22°18' E 114°09'1 0.9
2016-Dec-04 00:10N 22°18' E 114°08'2 3.3
2016-Dec-03 23:33N 22°17' E 114°10'1 0.5
2016-Dec-03 22:33N 22°17' E 114°09'0 0.0
2016-Dec-03 15:32N 22°17' E 114°10'1 0.9
2016-Dec-03 14:10N 22°18' E 114°08'1 2.0
2016-Dec-03 13:33N 22°17' E 114°10'1 0.7
2016-Dec-03 12:28N 22°18' E 114°09'1 0.2
2016-Dec-03 06:33N 22°17' E 114°10'0 0.1
2016-Dec-03 02:18N 22°17' E 114°10'1 0.5
2016-Dec-03 00:33N 22°17' E 114°10'1 1.1
2016-Dec-02 23:18N 22°18' E 114°08'1 0.2
2016-Dec-02 15:33N 22°17' E 114°10'0 0.0
2016-Dec-02 13:32N 22°17' E 114°10'2 1.2
2016-Dec-02 12:10N 22°18' E 114°08'0 0.1
2016-Dec-02 10:29N 22°18' E 114°08'2 0.2
2016-Dec-02 02:21N 22°19' E 114°09'1 0.8
2016-Dec-02 00:33N 22°17' E 114°09'1 1.1
2016-Dec-01 23:20N 22°18' E 114°08'0 0.0
2016-Dec-01 14:10N 22°18' E 114°08'2 2.6
2016-Dec-01 13:32N 22°17' E 114°10'1 1.4
2016-Dec-01 12:30N 22°18' E 114°08'0 0.1
2016-Dec-01 10:30N 22°18' E 114°08'0 0.0
2016-Dec-01 02:20N 22°18' E 114°08'0 0.0
2016-Nov-30 16:19N 22°18' E 114°08'0 0.0
2016-Nov-30 14:09N 22°18' E 114°08'1 2.1
2016-Nov-30 13:33N 22°17' E 114°09'1 0.7
2016-Nov-30 12:21N 22°18' E 114°08'1 0.5
2016-Nov-30 10:26N 22°17' E 114°09'0 0.1
2016-Nov-30 08:31N 22°17' E 114°09'0 0.2
2016-Nov-30 06:28N 22°17' E 114°10'  
Track history (hours):
 
Tides and Currents Weather Stations Pressure Air Temp Water Temp Dewpoint Dewpoint Depression Visibility Wind Speed Wind Dir Waves Ship Positions

First Ferry Viii

Last reported at 2016-Dec-09 01:12 UTC. Time now 2016-Dec-09 02:03 UTC.
Position N 22°19' E 114°09'.

Length 36 m; draft 1.8 m.

Type: High speed craft. MMSI: 477995030.

Date/timePositionNaut miles runAvg speedWind from/ knotsBaromVisibWave heightAir tempDewpointWater temp
2016-Dec-09 01:12N 22°19' E 114°09'2 0.2
2016-Dec-08 12:14N 22°17' E 114°10'2 1.8
2016-Dec-08 11:08N 22°18' E 114°08'1 1.3
2016-Dec-08 10:33N 22°18' E 114°09'1 0.4
2016-Dec-08 08:34N 22°18' E 114°09'1 0.4
2016-Dec-08 06:18N 22°17' E 114°09'0 0.1
2016-Dec-08 04:24N 22°17' E 114°10'2 0.5
2016-Dec-08 01:11N 22°19' E 114°09'1 0.1
2016-Dec-07 11:08N 22°18' E 114°09'1 1.8
2016-Dec-07 10:30N 22°17' E 114°10'1 0.4
2016-Dec-07 07:18N 22°18' E 114°08'2 2.1
2016-Dec-07 06:33N 22°17' E 114°10'0 0.2
2016-Dec-07 04:20N 22°17' E 114°10'0 0.1
2016-Dec-07 02:29N 22°17' E 114°10'1 1.0
2016-Dec-07 01:19N 22°18' E 114°08'0 0.0
2016-Dec-06 06:15N 22°18' E 114°08'1 0.2
2016-Dec-06 00:33N 22°18' E 114°09'1 0.1
2016-Dec-05 12:16N 22°17' E 114°11'2 2.0
2016-Dec-05 11:08N 22°18' E 114°08'0 0.2
2016-Dec-05 10:33N 22°18' E 114°08'0 0.2
2016-Dec-05 09:20N 22°18' E 114°08'2 0.2
2016-Dec-05 01:14N 22°19' E 114°09'3 1.2
2016-Dec-04 23:03N 22°17' E 114°07'1 0.1
2016-Dec-04 11:33N 22°18' E 114°09'1 0.1
2016-Dec-04 07:09N 22°18' E 114°08'2 2.5
2016-Dec-04 06:33N 22°17' E 114°10'0 0.1
2016-Dec-04 03:33N 22°17' E 114°09'1 1.0
2016-Dec-04 02:10N 22°18' E 114°08'1 2.1
2016-Dec-04 01:33N 22°18' E 114°09'1 0.9
2016-Dec-04 00:10N 22°18' E 114°08'2 3.3
2016-Dec-03 23:33N 22°17' E 114°10'1 0.5
2016-Dec-03 22:33N 22°17' E 114°09'0 0.0
2016-Dec-03 15:32N 22°17' E 114°10'1 0.9
2016-Dec-03 14:10N 22°18' E 114°08'1 2.0
2016-Dec-03 13:33N 22°17' E 114°10'1 0.7
2016-Dec-03 12:28N 22°18' E 114°09'1 0.2
2016-Dec-03 06:33N 22°17' E 114°10'0 0.1
2016-Dec-03 02:18N 22°17' E 114°10'1 0.5
2016-Dec-03 00:33N 22°17' E 114°10'1 1.1
2016-Dec-02 23:18N 22°18' E 114°08'1 0.2
2016-Dec-02 15:33N 22°17' E 114°10'0 0.0
2016-Dec-02 13:32N 22°17' E 114°10'2 1.2
2016-Dec-02 12:10N 22°18' E 114°08'0 0.1
2016-Dec-02 10:29N 22°18' E 114°08'2 0.2
2016-Dec-02 02:21N 22°19' E 114°09'1 0.8
2016-Dec-02 00:33N 22°17' E 114°09'1 1.1
2016-Dec-01 23:20N 22°18' E 114°08'0 0.0
2016-Dec-01 14:10N 22°18' E 114°08'2 2.6
2016-Dec-01 13:32N 22°17' E 114°10'1 1.4
2016-Dec-01 12:30N 22°18' E 114°08'0 0.1
2016-Dec-01 10:30N 22°18' E 114°08'0 0.0
2016-Dec-01 02:20N 22°18' E 114°08'0 0.0
2016-Nov-30 16:19N 22°18' E 114°08'0 0.0
2016-Nov-30 14:09N 22°18' E 114°08'1 2.1
2016-Nov-30 13:33N 22°17' E 114°09'1 0.7
2016-Nov-30 12:21N 22°18' E 114°08'1 0.5
2016-Nov-30 10:26N 22°17' E 114°09'0 0.1
2016-Nov-30 08:31N 22°17' E 114°09'0 0.2
2016-Nov-30 06:28N 22°17' E 114°10'  

Dump ship's entire track history